Time;durP1;ratioP1;P1;durP2;ratioP2;P2;SDS_P1;SDS_P2;PMS_P1;PMS_P2;Temp;Humidity;BMP_temperature;BMP_pressure;BME280_temperature;BME280_humidity;BME280_pressure;Samples;Min_cycle;Max_cycle;Signal;HPM_P1;HPM_P2
2022/01/25 00:10:38;;;;;;;;;72.25;53.00;;;;;1.91;80.49;103056.94;5056675;28;45573;-68
2022/01/25 00:15:47;;;;;;;;;71.25;52.50;;;;;1.95;81.15;103051.91;5053752;28;45825;-68
2022/01/25 00:26:22;;;;;;;;;71.00;51.50;;;;;2.38;81.33;103050.53;5061155;28;45546;-68
2022/01/25 00:29:04;;;;;;;;;71.50;50.75;;;;;2.37;81.32;103037.53;5056086;28;45498;-68
2022/01/25 00:31:31;;;;;;;;;65.50;52.75;;;;;2.47;81.22;103052.50;5060357;28;45507;-68
2022/01/25 00:33:56;;;;;;;;;69.25;52.25;;;;;2.45;81.30;103049.84;5053037;28;45543;-68
2022/01/25 00:36:24;;;;;;;;;73.00;50.00;;;;;2.45;81.48;103059.34;5057637;28;46481;-68
2022/01/25 00:38:51;;;;;;;;;69.50;53.00;;;;;2.44;81.35;103060.19;5053717;28;45491;-68
2022/01/25 00:41:18;;;;;;;;;65.50;45.50;;;;;2.45;81.53;103056.75;5057062;28;45540;-68
2022/01/25 00:43:45;;;;;;;;;55.75;46.75;;;;;2.53;81.74;103066.53;5079035;27;45555;-69
2022/01/25 00:46:12;;;;;;;;;68.00;51.75;;;;;2.53;81.49;103063.06;5094939;27;46684;-68
2022/01/25 00:56:31;;;;;;;;;65.75;46.75;;;;;2.55;81.33;103046.66;5100477;27;45372;-69
2022/01/25 00:58:58;;;;;;;;;51.00;44.25;;;;;2.59;81.23;103052.84;5080166;27;46110;-68
2022/01/25 01:01:24;;;;;;;;;51.00;45.50;;;;;2.59;81.62;103056.31;5100075;27;45528;-68
2022/01/25 01:03:50;;;;;;;;;49.25;42.75;;;;;2.58;81.46;103043.28;5102640;27;45543;-68
2022/01/25 01:06:16;;;;;;;;;62.75;46.75;;;;;2.62;81.59;103050.34;5102287;27;46377;-68
2022/01/25 01:47:34;;;;;;;;;53.75;42.25;;;;;2.25;83.71;103064.88;5067608;28;45539;-68
2022/01/25 01:50:01;;;;;;;;;52.00;40.50;;;;;2.30;83.67;103052.06;5057522;28;45614;-68
2022/01/25 01:52:27;;;;;;;;;57.00;43.25;;;;;2.36;83.91;103060.00;5058843;28;45521;-69
2022/01/25 01:54:53;;;;;;;;;40.25;34.50;;;;;2.35;83.86;103053.06;5060662;28;45883;-68
2022/01/25 01:57:18;;;;;;;;;59.75;44.25;;;;;2.35;84.02;103064.31;5064198;28;45384;-68
2022/01/25 01:59:44;;;;;;;;;49.25;42.25;;;;;2.31;84.01;103067.66;5057237;28;45628;-68
2022/01/25 02:02:09;;;;;;;;;46.75;40.00;;;;;2.35;83.96;103069.50;5056227;28;45576;-68
2022/01/25 02:04:35;;;;;;;;;61.00;44.25;;;;;2.37;83.80;103068.66;5064595;28;45328;-68
2022/01/25 02:07:00;;;;;;;;;60.75;44.00;;;;;2.40;83.87;103059.22;5056312;28;45373;-68
2022/01/25 02:09:26;;;;;;;;;44.75;38.00;;;;;2.47;84.49;103062.91;5060799;28;45645;-68
2022/01/25 02:11:51;;;;;;;;;51.50;43.00;;;;;2.43;84.30;103061.03;5056199;28;46445;-68
2022/01/25 02:14:16;;;;;;;;;50.50;38.00;;;;;2.44;84.25;103057.59;5057142;28;45512;-68
2022/01/25 02:24:38;;;;;;;;;48.75;38.50;;;;;2.48;84.80;103059.44;5103001;27;45444;-68
2022/01/25 02:27:04;;;;;;;;;44.25;37.00;;;;;2.54;83.97;103068.28;5101016;27;45451;-68
2022/01/25 02:29:30;;;;;;;;;48.25;41.00;;;;;2.57;84.04;103070.09;5101154;27;45457;-68
2022/01/25 02:31:56;;;;;;;;;42.25;31.50;;;;;2.55;84.74;103063.97;5111205;27;45881;-68
2022/01/25 02:34:23;;;;;;;;;44.25;32.75;;;;;2.60;84.52;103075.34;5098664;27;45717;-68
2022/01/25 02:37:21;;;;;;;;;46.25;37.25;;;;;2.62;84.72;103063.31;5103037;27;45614;-68
2022/01/25 02:39:46;;;;;;;;;47.25;32.50;;;;;2.63;84.65;103061.59;5021000;28;45492;-68
2022/01/25 02:42:15;;;;;;;;;59.75;41.25;;;;;2.62;84.41;103058.13;5027170;28;46298;-68
2022/01/25 02:44:42;;;;;;;;;44.00;32.25;;;;;2.59;84.11;103065.81;5023432;28;46153;-68
2022/01/25 02:49:51;;;;;;;;;47.75;36.25;;;;;2.51;83.95;103051.75;5013388;28;45496;-69
2022/01/25 02:52:17;;;;;;;;;45.75;37.75;;;;;2.49;83.96;103059.50;5008510;28;46305;-68
2022/01/25 02:54:42;;;;;;;;;43.00;33.75;;;;;2.50;83.62;103062.97;5008868;28;45636;-68
2022/01/25 02:57:07;;;;;;;;;45.33;35.67;;;;;2.56;83.68;103069.22;5015551;28;45424;-68
2022/01/25 02:59:34;;;;;;;;;54.25;37.00;;;;;2.58;83.57;103062.34;5013107;28;45584;-68
2022/01/25 03:01:59;;;;;;;;;59.75;35.25;;;;;2.61;83.78;103066.75;5015649;28;45608;-68
2022/01/25 03:04:24;;;;;;;;;48.25;33.75;;;;;2.63;84.07;103065.06;5008698;28;45412;-68
2022/01/25 03:06:51;;;;;;;;;39.50;31.25;;;;;2.64;84.24;103061.63;5012904;28;45728;-68
2022/01/25 03:09:16;;;;;;;;;42.50;30.00;;;;;2.62;83.79;103073.69;5021810;28;45641;-68
2022/01/25 03:11:48;;;;;;;;;40.50;31.25;;;;;2.54;83.99;103068.28;5026038;28;46403;-68
2022/01/25 03:14:13;;;;;;;;;43.25;32.75;;;;;2.48;84.03;103054.25;5025965;28;45701;-68
2022/01/25 03:16:48;;;;;;;;;43.50;27.25;;;;;2.46;84.12;103067.22;5103246;27;45517;-68
2022/01/25 03:23:04;;;;;;;;;44.75;36.50;;;;;2.46;83.65;103062.00;5085608;27;47095;-68
2022/01/25 03:24:58;;;;;;;;;47.25;29.50;;;;;2.48;83.88;103062.03;5090570;27;45505;-68
2022/01/25 03:27:23;;;;;;;;;40.00;29.75;;;;;2.51;83.68;103055.25;5102184;27;45700;-68
2022/01/25 03:29:49;;;;;;;;;44.25;37.25;;;;;2.55;83.55;103053.59;5098093;27;45468;-68
2022/01/25 03:32:14;;;;;;;;;41.33;36.00;;;;;2.57;83.20;103055.41;5110770;27;46347;-69
2022/01/25 03:34:40;;;;;;;;;44.75;35.25;;;;;2.59;83.11;103051.13;5113331;27;45408;-68
2022/01/25 03:37:05;;;;;;;;;38.25;30.75;;;;;2.60;83.08;103045.06;5095647;27;45600;-68
2022/01/25 03:39:31;;;;;;;;;47.00;33.50;;;;;2.67;83.02;103050.47;5094709;27;45530;-68
2022/01/25 03:41:56;;;;;;;;;49.50;32.75;;;;;2.70;82.84;103046.22;5109186;27;45591;-69
2022/01/25 03:44:22;;;;;;;;;41.00;36.25;;;;;2.67;82.96;103050.47;5104655;27;45483;-68
2022/01/25 03:51:57;;;;;;;;;44.75;35.75;;;;;2.68;82.61;103045.31;5105696;27;45585;-68
2022/01/25 03:54:22;;;;;;;;;47.50;32.75;;;;;2.65;83.02;103031.34;5104762;27;45580;-68
2022/01/25 03:56:47;;;;;;;;;59.00;36.67;;;;;2.70;83.06;103040.13;5097498;27;45539;-69
2022/01/25 03:59:13;;;;;;;;;40.25;31.75;;;;;2.66;82.89;103039.16;5109680;27;45497;-68
2022/01/25 04:01:38;;;;;;;;;48.50;35.50;;;;;2.55;82.92;103025.03;5106960;27;45644;-68
2022/01/25 04:04:09;;;;;;;;;33.67;29.00;;;;;2.56;83.14;103034.59;5105801;27;45763;-68
2022/01/25 04:06:36;;;;;;;;;45.25;37.50;;;;;2.56;83.64;103040.66;5103137;27;45431;-69
2022/01/25 04:09:05;;;;;;;;;49.75;36.50;;;;;2.51;83.28;103037.06;5100860;27;45356;-68
2022/01/25 04:11:31;;;;;;;;;52.25;39.00;;;;;2.47;83.31;103039.53;5105989;27;46645;-68
2022/01/25 04:13:57;;;;;;;;;44.25;34.25;;;;;2.44;83.80;103037.72;5106924;27;45584;-68
2022/01/25 04:16:29;;;;;;;;;44.50;34.00;;;;;2.44;83.30;103042.91;5101393;27;45490;-69
2022/01/25 04:19:08;;;;;;;;;48.50;34.00;;;;;2.44;83.17;103042.91;5100638;27;45442;-68
2022/01/25 04:26:45;;;;;;;;;40.00;32.50;;;;;2.49;83.31;103038.72;5099020;27;45440;-68
2022/01/25 04:29:10;;;;;;;;;44.00;36.67;;;;;2.51;83.55;103041.38;5097496;27;45407;-69
2022/01/25 04:31:37;;;;;;;;;45.00;36.00;;;;;2.50;83.58;103043.06;5112179;27;46992;-69
2022/01/25 04:34:25;;;;;;;;;39.50;31.50;;;;;2.51;83.99;103049.16;5096538;27;45611;-68
2022/01/25 04:48:53;;;;;;;;;37.00;34.50;;;;;2.46;84.30;103046.44;5087644;27;45565;-68
2022/01/25 04:51:08;;;;;;;;;46.00;36.75;;;;;2.41;83.79;103054.94;5103148;27;45502;-68
2022/01/25 04:54:00;;;;;;;;;48.00;36.25;;;;;2.44;84.08;103053.28;5086856;27;46435;-68
2022/01/25 04:56:41;;;;;;;;;40.00;34.00;;;;;2.46;83.72;103058.53;5106295;27;47775;-68
2022/01/25 05:01:36;;;;;;;;;49.00;41.50;;;;;2.47;83.46;103055.97;5094440;27;45453;-68
2022/01/25 05:04:07;;;;;;;;;42.50;36.50;;;;;2.50;83.73;103063.84;5095146;27;47082;-68
2022/01/25 05:06:33;;;;;;;;;49.00;37.00;;;;;2.54;83.70;103062.22;5097884;27;45784;-69
2022/01/25 05:09:08;;;;;;;;;41.75;33.25;;;;;2.56;83.73;103061.44;5103909;27;45294;-68
2022/01/25 05:11:36;;;;;;;;;43.50;31.50;;;;;2.60;83.17;103057.19;5090716;27;45536;-68
2022/01/25 05:16:46;;;;;;;;;39.50;32.00;;;;;2.56;83.14;103037.19;5100814;27;45741;-68
2022/01/25 05:24:37;;;;;;;;;51.00;34.25;;;;;2.69;83.31;103043.56;5092807;27;45409;-68
2022/01/25 05:27:07;;;;;;;;;54.00;37.75;;;;;2.78;82.89;103060.28;5105351;27;45992;-68
2022/01/25 05:29:33;;;;;;;;;44.25;33.25;;;;;2.79;82.80;103049.06;5112220;27;45403;-68
2022/01/25 05:31:59;;;;;;;;;41.00;29.00;;;;;2.81;82.88;103049.97;5112298;27;45375;-68
2022/01/25 05:34:25;;;;;;;;;47.75;34.00;;;;;2.82;83.17;103051.75;5099627;27;46561;-68
2022/01/25 05:36:51;;;;;;;;;39.00;31.50;;;;;2.75;83.71;103056.72;5100620;27;45472;-68
2022/01/25 05:39:30;;;;;;;;;39.25;29.75;;;;;2.75;83.42;103067.97;5107439;27;45434;-68
2022/01/25 05:41:59;;;;;;;;;55.00;36.50;;;;;2.71;83.89;103063.53;5112168;27;45264;-68
2022/01/25 05:49:22;;;;;;;;;38.75;33.50;;;;;2.71;83.52;103078.25;5098727;27;45481;-68
2022/01/25 05:51:47;;;;;;;;;41.25;34.00;;;;;2.69;83.38;103067.81;5106936;27;45452;-68
2022/01/25 05:54:13;;;;;;;;;41.75;35.75;;;;;2.68;82.88;103070.38;5098722;27;45432;-69
2022/01/25 05:56:39;;;;;;;;;45.25;35.75;;;;;2.54;82.93;103047.50;5108961;27;45486;-68
2022/01/25 05:59:04;;;;;;;;;45.00;34.50;;;;;2.59;82.90;103066.69;5111943;27;45413;-68
2022/01/25 06:01:30;;;;;;;;;57.25;41.00;;;;;2.61;83.54;103066.75;5104338;27;47645;-69
2022/01/25 06:03:55;;;;;;;;;53.25;42.00;;;;;2.53;83.45;103044.88;5102414;27;47122;-69
2022/01/25 06:06:21;;;;;;;;;42.50;35.00;;;;;2.66;83.64;103057.34;5098455;27;45533;-68
2022/01/25 06:08:46;;;;;;;;;55.25;37.75;;;;;2.67;83.69;103066.03;5097246;27;45543;-68
2022/01/25 06:11:12;;;;;;;;;56.50;41.25;;;;;2.65;83.72;103060.78;5101867;27;45525;-68
2022/01/25 06:13:37;;;;;;;;;48.67;36.00;;;;;2.65;83.70;103062.50;5105962;27;46496;-68
2022/01/25 06:16:03;;;;;;;;;45.25;36.25;;;;;2.67;83.69;103055.66;5100381;27;46276;-68
2022/01/25 06:18:28;;;;;;;;;43.50;37.75;;;;;2.66;83.79;103053.88;5102796;27;45990;-68
2022/01/25 06:20:53;;;;;;;;;51.00;33.33;;;;;2.69;83.93;103053.97;5102930;27;45503;-69
2022/01/25 06:23:19;;;;;;;;;50.75;39.50;;;;;2.72;84.08;103057.53;5110479;27;46489;-68
2022/01/25 06:25:44;;;;;;;;;43.67;34.00;;;;;2.73;83.51;103054.09;5111874;27;45451;-68
2022/01/25 06:28:09;;;;;;;;;63.00;42.25;;;;;2.79;83.32;103056.84;5101907;27;45611;-69
2022/01/25 06:30:35;;;;;;;;;44.33;38.33;;;;;2.83;83.36;103060.41;5104020;27;45437;-69
2022/01/25 06:33:00;;;;;;;;;40.25;34.50;;;;;2.87;83.47;103065.72;5103716;27;46223;-69
2022/01/25 06:35:29;;;;;;;;;58.75;37.75;;;;;2.81;83.23;103047.38;5104142;27;45562;-69
2022/01/25 06:37:54;;;;;;;;;52.00;41.50;;;;;2.96;83.53;103064.19;5104483;27;45637;-69
2022/01/25 06:40:19;;;;;;;;;47.75;38.25;;;;;2.99;82.91;103064.28;5105724;27;45525;-69
2022/01/25 06:42:45;;;;;;;;;49.25;33.50;;;;;3.01;83.62;103063.47;5097489;27;45766;-69
2022/01/25 06:45:15;;;;;;;;;45.75;35.25;;;;;3.06;83.13;103068.78;5092839;27;45536;-69
2022/01/25 06:47:44;;;;;;;;;49.50;38.25;;;;;3.09;83.06;103064.56;5097304;27;45389;-69
2022/01/25 06:50:11;;;;;;;;;66.25;46.00;;;;;3.06;83.52;103050.59;5103972;27;45935;-69
2022/01/25 06:52:39;;;;;;;;;54.00;43.25;;;;;3.08;82.89;103054.09;5104582;27;46653;-69
2022/01/25 06:55:11;;;;;;;;;54.00;42.75;;;;;3.10;83.16;103053.31;5100123;27;45449;-69
2022/01/25 06:57:36;;;;;;;;;48.00;37.25;;;;;3.08;82.96;103061.91;5102109;27;45388;-69
2022/01/25 07:00:06;;;;;;;;;49.00;34.75;;;;;3.12;83.39;103062.00;5105291;27;45562;-69
2022/01/25 07:02:31;;;;;;;;;49.75;38.25;;;;;3.08;82.83;103054.09;5098237;27;45507;-69
2022/01/25 07:04:57;;;;;;;;;46.00;38.67;;;;;3.12;83.43;103066.34;5095710;27;51166;-68
2022/01/25 07:07:22;;;;;;;;;54.50;39.00;;;;;3.13;83.32;103063.78;5095170;27;45406;-69
2022/01/25 07:09:48;;;;;;;;;64.00;45.50;;;;;3.13;83.08;103061.19;5094946;27;45440;-69
2022/01/25 07:12:13;;;;;;;;;60.75;44.25;;;;;3.10;83.35;103057.63;5097014;27;46740;-68
2022/01/25 07:14:38;;;;;;;;;69.50;48.00;;;;;3.16;83.16;103068.19;5105855;27;45490;-68
2022/01/25 07:17:04;;;;;;;;;47.50;43.75;;;;;3.08;83.31;103055.00;5098504;27;45487;-68
2022/01/25 07:19:29;;;;;;;;;59.50;42.50;;;;;3.12;82.86;103066.34;5099101;27;45401;-68
2022/01/25 07:21:55;;;;;;;;;50.25;43.75;;;;;3.06;83.16;103066.19;5100744;27;46417;-68
2022/01/25 07:24:20;;;;;;;;;46.00;38.00;;;;;3.07;83.19;103079.19;5104702;27;45549;-68
2022/01/25 07:26:47;;;;;;;;;51.25;43.50;;;;;3.04;83.40;103079.16;5106824;27;45415;-68
2022/01/25 07:29:13;;;;;;;;;66.75;41.50;;;;;3.08;83.36;103087.88;5107629;27;45521;-68
2022/01/25 07:31:38;;;;;;;;;65.50;45.00;;;;;2.99;83.43;103066.88;5108384;27;47605;-69
2022/01/25 07:34:04;;;;;;;;;50.00;39.67;;;;;2.99;84.17;103085.06;5085758;27;53284;-69
2022/01/25 07:36:29;;;;;;;;;45.75;35.00;;;;;2.95;84.00;103089.28;5079744;27;45569;-69
2022/01/25 07:38:54;;;;;;;;;51.25;43.25;;;;;2.90;84.21;103090.00;5096651;27;45530;-69
2022/01/25 07:41:21;;;;;;;;;53.33;44.33;;;;;2.86;84.21;103091.63;5096565;27;46341;-69
2022/01/25 07:43:46;;;;;;;;;51.75;43.75;;;;;2.86;84.54;103094.22;5102312;27;45928;-69
2022/01/25 07:46:14;;;;;;;;;54.00;36.50;;;;;2.87;84.83;103089.09;5092862;27;45493;-69
2022/01/25 07:48:40;;;;;;;;;33.00;33.00;;;;;2.86;84.48;103084.72;5094227;27;45465;-69
2022/01/25 07:51:06;;;;;;;;;52.00;43.50;;;;;2.90;84.71;103100.41;5090065;27;45943;-69
2022/01/25 07:53:31;;;;;;;;;45.00;36.00;;;;;2.82;85.30;103097.63;5092569;27;46191;-69
2022/01/25 07:55:56;;;;;;;;;43.50;26.75;;;;;2.72;84.98;103099.06;5093627;27;45462;-69
2022/01/25 07:58:22;;;;;;;;;44.67;38.33;;;;;2.69;85.35;103096.38;5101271;27;45456;-68
2022/01/25 08:00:48;;;;;;;;;49.25;34.50;;;;;2.69;85.61;103103.28;5097186;27;45569;-69
2022/01/25 08:03:13;;;;;;;;;44.50;35.75;;;;;2.67;85.26;103108.44;5093508;27;45636;-70
2022/01/25 08:05:39;;;;;;;;;48.75;41.25;;;;;2.66;84.99;103098.88;5102725;27;45392;-69
2022/01/25 08:08:04;;;;;;;;;45.75;41.00;;;;;2.66;85.10;103098.88;5104190;27;45641;-70
2022/01/25 08:10:30;;;;;;;;;43.50;36.75;;;;;2.69;84.90;103101.56;5084317;27;45510;-69
2022/01/25 08:12:55;;;;;;;;;40.00;32.75;;;;;2.74;85.01;103114.69;5106708;27;45903;-69
2022/01/25 08:15:21;;;;;;;;;50.75;36.75;;;;;2.78;84.94;103112.22;5101762;27;45486;-69
2022/01/25 08:17:46;;;;;;;;;57.50;39.25;;;;;2.81;85.23;103107.09;5093509;27;45407;-69
2022/01/25 08:20:12;;;;;;;;;56.25;41.25;;;;;2.86;84.90;103110.69;5101120;27;47141;-69
2022/01/25 08:22:37;;;;;;;;;41.50;36.25;;;;;2.96;84.70;103116.13;5100534;27;45497;-69
2022/01/25 08:25:04;;;;;;;;;49.25;37.25;;;;;3.00;84.85;103113.66;5092832;27;45548;-69
2022/01/25 08:27:30;;;;;;;;;51.75;40.50;;;;;2.99;84.88;103111.03;5086576;27;45391;-69
2022/01/25 08:29:55;;;;;;;;;49.25;35.25;;;;;2.96;84.74;103118.72;5091370;27;46271;-69
2022/01/25 08:32:21;;;;;;;;;52.75;42.25;;;;;2.97;84.62;103116.16;5093492;27;45467;-70
2022/01/25 08:34:47;;;;;;;;;72.00;51.75;;;;;2.96;84.85;103114.41;5105889;27;45434;-69
2022/01/25 08:37:13;;;;;;;;;73.25;46.50;;;;;3.04;84.68;103120.72;5087037;27;45502;-69
2022/01/25 08:39:38;;;;;;;;;50.25;40.25;;;;;3.11;84.26;103125.22;5087214;27;45613;-69
2022/01/25 08:42:04;;;;;;;;;56.75;43.00;;;;;3.17;84.25;103129.69;5086247;27;45503;-70
2022/01/25 08:44:30;;;;;;;;;86.75;60.25;;;;;3.25;83.89;103120.38;5087434;27;47602;-69
2022/01/25 08:46:55;;;;;;;;;77.50;55.50;;;;;3.31;83.96;103117.94;5077530;27;45439;-69
2022/01/25 08:49:21;;;;;;;;;52.50;38.50;;;;;3.34;84.17;103117.13;5087242;27;46438;-69
2022/01/25 08:51:48;;;;;;;;;52.00;43.25;;;;;3.33;83.67;103108.44;5091606;27;45523;-69
2022/01/25 08:54:14;;;;;;;;;55.25;39.75;;;;;3.20;84.25;103096.00;5091509;27;45475;-69
2022/01/25 08:56:41;;;;;;;;;51.50;39.00;;;;;3.32;84.11;103114.50;5094088;27;45521;-69
2022/01/25 08:59:07;;;;;;;;;58.75;44.00;;;;;3.35;83.82;103114.56;5094555;27;45616;-69
2022/01/25 09:01:32;;;;;;;;;51.75;42.75;;;;;3.35;84.13;103114.56;5103055;27;45301;-69
2022/01/25 09:03:57;;;;;;;;;55.25;43.25;;;;;3.34;83.73;103120.63;5090624;27;45414;-70
2022/01/25 09:06:23;;;;;;;;;45.33;33.67;;;;;3.25;84.07;103099.59;5084209;27;45470;-70
2022/01/25 09:08:50;;;;;;;;;43.75;36.00;;;;;3.34;83.72;103123.22;5089826;27;46219;-68
2022/01/25 09:11:15;;;;;;;;;45.25;37.25;;;;;3.37;83.85;103123.28;5095388;27;45265;-69
2022/01/25 09:13:41;;;;;;;;;44.00;36.33;;;;;3.39;83.70;103126.81;5090052;27;45217;-69
2022/01/25 09:16:07;;;;;;;;;45.50;32.00;;;;;3.36;83.61;103118.06;5085094;27;45489;-69
2022/01/25 09:18:32;;;;;;;;;35.00;28.75;;;;;3.42;83.58;103126.00;5086639;27;45580;-69
2022/01/25 09:20:58;;;;;;;;;48.75;39.75;;;;;3.42;83.30;103128.59;5091656;27;45541;-70
2022/01/25 09:23:25;;;;;;;;;44.75;36.75;;;;;3.44;83.50;103129.50;5087033;27;45519;-69
2022/01/25 09:25:51;;;;;;;;;44.25;33.00;;;;;3.47;83.30;103132.19;5091268;27;45353;-69
2022/01/25 09:28:18;;;;;;;;;44.75;35.00;;;;;3.51;82.78;103136.63;5090008;27;47039;-69
2022/01/25 09:30:44;;;;;;;;;50.00;40.25;;;;;3.52;82.66;103132.31;5086922;27;46113;-69
2022/01/25 09:33:09;;;;;;;;;52.50;36.50;;;;;3.52;82.97;103133.19;5089722;27;45404;-70
2022/01/25 09:35:35;;;;;;;;;46.25;41.50;;;;;3.64;82.75;103140.41;5091139;27;45242;-69
2022/01/25 09:38:00;;;;;;;;;52.50;33.50;;;;;3.67;82.77;103141.34;5084548;27;45529;-69
2022/01/25 09:40:26;;;;;;;;;41.00;37.25;;;;;3.65;82.08;103130.06;5092003;27;45394;-69
2022/01/25 09:42:55;;;;;;;;;47.25;31.25;;;;;3.60;81.96;103128.16;5087062;27;45491;-69
2022/01/25 09:45:20;;;;;;;;;52.25;39.75;;;;;3.72;82.06;103136.28;5089286;27;45477;-69
2022/01/25 09:47:47;;;;;;;;;45.25;38.25;;;;;3.77;82.43;103142.47;5082675;27;46260;-69
2022/01/25 09:50:12;;;;;;;;;48.50;36.25;;;;;3.79;82.31;103145.97;5093492;27;45314;-69
2022/01/25 09:52:41;;;;;;;;;46.00;36.50;;;;;3.84;81.46;103141.75;5083235;27;45723;-69
2022/01/25 09:55:19;;;;;;;;;46.25;39.25;;;;;3.82;81.48;103139.97;5088894;27;45513;-69
2022/01/25 09:57:44;;;;;;;;;48.25;39.50;;;;;3.88;81.77;103142.72;5090826;27;45565;-69
2022/01/25 10:00:12;;;;;;;;;52.50;43.50;;;;;3.92;81.96;103148.03;5091756;27;45383;-69
2022/01/25 10:02:44;;;;;;;;;49.00;35.50;;;;;3.95;81.31;103143.72;5092139;27;45517;-69
2022/01/25 10:05:27;;;;;;;;;37.25;32.25;;;;;4.01;81.32;103143.84;5093690;27;45309;-69
2022/01/25 10:08:06;;;;;;;;;53.00;38.25;;;;;4.07;81.22;103138.78;5102581;27;45464;-69
2022/01/25 10:10:34;;;;;;;;;48.25;37.50;;;;;4.07;80.90;103144.91;5084699;27;45258;-69
2022/01/25 10:13:10;;;;;;;;;53.25;37.50;;;;;4.10;80.86;103146.69;5087860;27;45221;-69
2022/01/25 10:15:36;;;;;;;;;42.00;33.50;;;;;4.13;81.40;103147.63;5090749;27;45614;-69
2022/01/25 10:18:04;;;;;;;;;49.50;37.75;;;;;4.17;81.35;103148.56;5082543;27;46448;-69
2022/01/25 10:20:33;;;;;;;;;47.75;39.00;;;;;4.24;81.58;103154.81;5078559;27;45458;-69
2022/01/25 10:23:01;;;;;;;;;58.25;39.50;;;;;4.30;81.55;103161.00;5093245;27;45287;-69
2022/01/25 10:25:45;;;;;;;;;55.25;41.25;;;;;4.33;81.35;103153.28;5092269;27;45519;-69
2022/01/25 10:28:13;;;;;;;;;63.25;43.25;;;;;4.35;80.92;103159.38;5082800;27;46364;-69
2022/01/25 10:30:40;;;;;;;;;57.50;45.00;;;;;4.35;81.02;103158.50;5084247;27;45455;-69
2022/01/25 10:33:36;;;;;;;;;56.25;43.50;;;;;4.36;80.93;103163.75;5091087;27;45498;-69
2022/01/25 10:36:15;;;;;;;;;55.00;44.75;;;;;4.40;80.72;103151.69;5092099;27;45545;-69
2022/01/25 10:38:42;;;;;;;;;53.00;39.75;;;;;4.39;80.80;103156.00;5078162;27;46546;-69
2022/01/25 10:41:12;;;;;;;;;61.50;44.75;;;;;4.45;81.46;103157.88;5094474;27;45328;-69
2022/01/25 10:43:39;;;;;;;;;51.00;41.00;;;;;4.47;80.76;103150.94;5084584;27;45706;-69
2022/01/25 10:46:10;;;;;;;;;65.25;46.25;;;;;4.51;81.23;103152.78;5088689;27;45404;-69
2022/01/25 10:48:38;;;;;;;;;49.50;37.00;;;;;4.56;81.26;103161.56;5085155;27;46125;-69
2022/01/25 10:51:12;;;;;;;;;59.50;44.75;;;;;4.56;80.64;103171.09;5080597;27;45796;-69
2022/01/25 10:53:38;;;;;;;;;67.25;50.25;;;;;4.53;80.66;103158.88;5092853;27;45408;-69
2022/01/25 10:56:06;;;;;;;;;69.00;51.25;;;;;4.62;80.61;103160.81;5093426;27;45324;-69
2022/01/25 10:58:37;;;;;;;;;98.25;67.50;;;;;4.65;80.77;103155.69;5091885;27;46639;-69
2022/01/25 11:01:02;;;;;;;;;82.75;61.75;;;;;4.73;80.85;103161.91;5089955;27;45515;-69
2022/01/25 11:03:29;;;;;;;;;58.75;45.00;;;;;4.75;80.92;103161.91;5088490;27;45668;-69
2022/01/25 11:05:56;;;;;;;;;54.75;41.25;;;;;4.77;80.80;103165.47;5077340;27;45546;-69
2022/01/25 11:08:24;;;;;;;;;51.75;42.75;;;;;4.79;80.41;103158.53;5090036;27;46684;-69
2022/01/25 11:11:01;;;;;;;;;64.75;47.50;;;;;4.86;80.33;103153.50;5082162;27;45818;-69
2022/01/25 11:16:00;;;;;;;;;62.50;46.25;;;;;4.89;80.31;103150.06;5080815;27;45553;-69
2022/01/25 11:18:26;;;;;;;;;61.25;47.25;;;;;4.93;80.04;103144.06;5082469;27;47274;-69
2022/01/25 11:20:53;;;;;;;;;77.50;53.50;;;;;5.00;80.37;103145.91;5080647;27;45427;-69
2022/01/25 11:23:19;;;;;;;;;82.25;57.00;;;;;5.05;79.90;103149.50;5080636;27;45234;-69
2022/01/25 11:25:46;;;;;;;;;73.00;47.25;;;;;5.09;79.76;103151.31;5078388;27;45507;-69
2022/01/25 11:28:13;;;;;;;;;67.25;52.00;;;;;5.13;79.82;103157.47;5091341;27;47612;-69
2022/01/25 11:30:40;;;;;;;;;69.00;49.25;;;;;5.17;79.59;103154.06;5089956;27;45502;-69
2022/01/25 11:33:07;;;;;;;;;74.50;55.00;;;;;5.18;79.85;103151.50;5087253;27;45458;-69
2022/01/25 11:35:33;;;;;;;;;59.50;42.00;;;;;5.18;79.43;103148.88;5078489;27;45573;-69
2022/01/25 11:37:58;;;;;;;;;64.75;47.00;;;;;5.20;79.52;103144.56;5091525;27;46547;-69
2022/01/25 11:40:30;;;;;;;;;77.00;50.75;;;;;5.26;79.45;103149.00;5081105;27;45484;-69
2022/01/25 11:43:02;;;;;;;;;100.25;71.50;;;;;5.28;79.37;103149.94;5082723;27;45537;-69
2022/01/25 11:45:34;;;;;;;;;66.25;46.75;;;;;5.31;79.33;103144.75;5082391;27;45410;-69
2022/01/25 11:47:59;;;;;;;;;61.25;44.50;;;;;5.30;79.38;103139.50;5086830;27;46302;-69
2022/01/25 11:50:28;;;;;;;;;70.00;46.25;;;;;5.33;78.93;103137.84;5090897;27;45409;-69
2022/01/25 11:52:56;;;;;;;;;55.25;44.00;;;;;5.40;79.09;103147.53;5082963;27;45392;-69
2022/01/25 11:55:41;;;;;;;;;63.00;41.50;;;;;5.40;78.59;103137.09;5079603;27;45546;-69
2022/01/25 11:58:11;;;;;;;;;59.75;46.50;;;;;5.41;78.69;103137.97;5087337;27;46115;-69
2022/01/25 12:00:52;;;;;;;;;67.25;50.50;;;;;5.44;78.27;103140.63;5085710;27;46121;-69
2022/01/25 12:03:19;;;;;;;;;62.75;47.75;;;;;5.42;78.42;103126.69;5080161;27;45622;-69
2022/01/25 12:06:12;;;;;;;;;69.75;44.75;;;;;5.47;78.20;103133.72;5090623;27;45467;-69
2022/01/25 12:08:53;;;;;;;;;63.75;44.00;;;;;5.38;78.30;103114.47;5077399;27;46113;-70
2022/01/25 12:11:40;;;;;;;;;62.25;50.00;;;;;5.48;78.49;103124.16;5103823;27;46006;-68
2022/01/25 12:14:28;;;;;;;;;75.75;58.25;;;;;5.41;78.63;103107.53;5085880;27;45559;-69
2022/01/25 12:16:55;;;;;;;;;115.00;95.25;;;;;5.56;78.52;103139.97;5087070;27;45437;-69
2022/01/25 12:19:48;;;;;;;;;106.00;79.50;;;;;5.44;78.28;103112.81;5080742;27;45774;-69
2022/01/25 12:22:26;;;;;;;;;114.50;90.50;;;;;5.60;78.45;103129.59;5075588;27;45653;-69
2022/01/25 12:25:16;;;;;;;;;88.50;66.25;;;;;5.63;78.86;103123.53;5081375;27;45567;-70
2022/01/25 12:28:01;;;;;;;;;66.75;50.50;;;;;5.67;78.32;103120.13;5083393;27;45498;-70
2022/01/25 12:30:37;;;;;;;;;62.50;44.75;;;;;5.68;78.00;103106.22;5085904;27;45675;-70
2022/01/25 12:33:18;;;;;;;;;74.50;49.50;;;;;5.67;78.30;103105.34;5085749;27;45859;-69
2022/01/25 12:35:49;;;;;;;;;86.00;63.25;;;;;5.72;77.98;103108.03;5084976;27;45507;-69
2022/01/25 12:38:41;;;;;;;;;90.00;65.25;;;;;5.73;78.32;103107.19;5085068;27;45395;-69
2022/01/25 12:41:08;;;;;;;;;77.75;57.25;;;;;5.74;77.94;103102.00;5087854;27;46425;-69
2022/01/25 12:43:40;;;;;;;;;83.25;61.25;;;;;5.73;78.03;103108.03;5080404;27;45965;-69
2022/01/25 12:46:15;;;;;;;;;78.50;57.50;;;;;5.73;78.14;103108.03;5077265;27;45538;-69
2022/01/25 12:49:01;;;;;;;;;92.75;71.00;;;;;5.76;77.79;103100.28;5077660;27;45586;-69
2022/01/25 12:51:32;;;;;;;;;77.75;55.75;;;;;5.72;77.76;103085.44;5080373;27;46393;-69
2022/01/25 12:54:02;;;;;;;;;74.75;58.25;;;;;5.75;77.58;103097.66;5079405;27;46654;-69
2022/01/25 12:56:45;;;;;;;;;66.50;45.50;;;;;5.75;77.35;103095.06;5086722;27;50816;-69
2022/01/25 12:59:18;;;;;;;;;55.75;44.25;;;;;5.74;77.16;103090.66;5086076;27;45474;-69
2022/01/25 13:01:43;;;;;;;;;89.25;69.50;;;;;5.72;77.58;103087.16;5090900;27;45458;-69
2022/01/25 13:04:10;;;;;;;;;116.50;94.00;;;;;5.77;77.86;103093.31;5083586;27;45509;-69
2022/01/25 13:06:39;;;;;;;;;108.00;84.50;;;;;5.72;77.65;103087.16;5078458;27;45475;-69
2022/01/25 13:09:12;;;;;;;;;85.00;60.25;;;;;5.76;77.30;103083.75;5078320;27;45543;-69
2022/01/25 13:11:58;;;;;;;;;76.50;50.25;;;;;5.77;77.17;103085.50;5087710;27;45869;-69
2022/01/25 13:17:00;;;;;;;;;66.50;44.75;;;;;5.72;77.06;103080.22;5080432;27;45857;-69
2022/01/25 13:19:32;;;;;;;;;68.75;47.00;;;;;5.69;77.65;103063.63;5085687;27;45502;-69
2022/01/25 13:22:03;;;;;;;;;60.25;46.75;;;;;5.77;77.28;103075.06;5085986;27;47566;-69
2022/01/25 13:24:34;;;;;;;;;62.75;45.25;;;;;5.73;77.25;103066.31;5083202;27;45477;-69
2022/01/25 13:27:08;;;;;;;;;63.75;46.50;;;;;5.75;76.89;103067.22;5083628;27;45515;-69